Three Bridges, New Jersey
Current Conditions -  °F | °C
As of 9:53 AM on Friday 19 Dec 2014 (Local Time) from KSMQ Reporting Station
Overcast Overcast  
Wind Chill: 30°   Ceiling: 3500
Heat Index: 37°   Visibility: 10mi
Dew Point: 22°   Wind: 9mph
Humidity: 54%   Direction: 330°NNW
Pressure: 30.06"   Gusts: NA
Location:  40.52°N, 74.8°W
Report Text: KSMQ 191453Z AUTO 33008KT 10SM OVC035 03/M06 A3006 RMK AO2 SLP182 T00281056 51023
Loading
Personal Weather Stations






























Interactive Weather Map New forecast layout! Learn more

10-Day Weather Forecast

Advertisements
Track Severe Weather on mobile